Time;durP1;ratioP1;P1;durP2;ratioP2;P2;SDS_P1;SDS_P2;PMS_P1;PMS_P2;Temp;Humidity;BMP_temperature;BMP_pressure;BME280_temperature;BME280_humidity;BME280_pressure;Samples;Min_cycle;Max_cycle;Signal;HPM_P1;HPM_P2
2021/01/03 00:02:44;;;;;;;77.97;39.50;;;;;;;2.20;86.26;98474.30;250226;1148;22935;-78
2021/01/03 00:07:48;;;;;;;91.73;45.93;;;;;;;2.22;86.54;98482.80;250033;1155;22967;-79
2021/01/03 00:12:50;;;;;;;86.83;44.40;;;;;;;2.21;86.16;98480.38;249931;1148;23039;-77
2021/01/03 00:17:52;;;;;;;81.70;41.93;;;;;;;2.15;86.58;98476.84;250262;1151;22999;-78
2021/01/03 00:22:55;;;;;;;84.03;45.10;;;;;;;2.17;86.50;98480.06;250041;1148;23341;-80
2021/01/03 00:27:57;;;;;;;71.13;40.87;;;;;;;2.26;87.26;98471.74;250019;1148;26487;-79
2021/01/03 00:32:59;;;;;;;74.47;41.80;;;;;;;2.37;86.92;98463.70;250018;1147;23106;-79
2021/01/03 00:38:05;;;;;;;59.07;31.90;;;;;;;2.40;86.52;98475.65;250022;1150;23025;-78
2021/01/03 00:43:10;;;;;;;75.67;40.87;;;;;;;2.37;86.38;98457.62;250378;1147;23050;-78
2021/01/03 00:48:12;;;;;;;57.73;33.47;;;;;;;2.37;86.42;98473.49;250206;1147;22964;-80
2021/01/03 00:53:14;;;;;;;75.60;42.53;;;;;;;2.37;86.08;98473.49;250311;1148;22995;-78
2021/01/03 00:58:17;;;;;;;70.75;39.65;;;;;;;2.38;86.25;98475.89;250364;1152;22942;-78
2021/01/03 01:03:21;;;;;;;78.03;39.20;;;;;;;2.38;86.70;98475.89;250265;1153;23080;-78
2021/01/03 01:08:24;;;;;;;81.73;43.37;;;;;;;2.41;86.50;98471.97;250022;1148;22939;-78
2021/01/03 01:13:28;;;;;;;66.03;34.73;;;;;;;2.50;86.27;98453.84;250367;1147;22939;-78
2021/01/03 01:18:30;;;;;;;64.45;35.25;;;;;;;2.56;86.24;98460.79;250347;1148;23106;-79
2021/01/03 01:23:32;;;;;;;73.30;38.17;;;;;;;2.52;86.35;98449.91;250208;1148;22989;-78
2021/01/03 01:28:34;;;;;;;64.70;34.57;;;;;;;2.52;85.72;98455.20;250467;1150;23099;-78
2021/01/03 01:33:36;;;;;;;63.93;34.80;;;;;;;2.51;86.08;98442.23;250240;1148;22938;-78
2021/01/03 01:38:38;;;;;;;56.77;32.10;;;;;;;2.48;86.36;98435.58;250159;1148;22937;-79
2021/01/03 01:43:42;;;;;;;63.40;35.10;;;;;;;2.42;85.48;98435.74;250213;1148;22949;-79
2021/01/03 01:48:46;;;;;;;74.77;38.57;;;;;;;2.38;86.12;98430.16;250218;1153;23364;-76
2021/01/03 01:54:03;;;;;;;74.43;39.67;;;;;;;2.36;85.97;98417.16;250125;1148;23521;-77
2021/01/03 01:59:16;;;;;;;66.73;35.80;;;;;;;2.36;85.55;98416.37;250201;1153;22980;-79
2021/01/03 02:04:23;;;;;;;77.67;40.77;;;;;;;2.35;85.96;98405.00;250310;1148;22970;-79
2021/01/03 02:10:09;;;;;;;63.40;32.25;;;;;;;2.40;85.71;98412.20;250293;1152;22945;-79
2021/01/03 02:15:26;;;;;;;63.47;34.77;;;;;;;2.37;85.58;98410.05;250139;1148;22967;-78
2021/01/03 02:20:35;;;;;;;60.50;34.77;;;;;;;2.37;85.42;98410.05;250406;1147;26391;-79
2021/01/03 02:25:39;;;;;;;73.10;42.10;;;;;;;2.40;85.38;98409.55;250421;1148;26171;-77
2021/01/03 02:30:48;;;;;;;65.70;37.37;;;;;;;2.42;86.18;98402.19;250249;1153;22946;-79
2021/01/03 02:35:56;;;;;;;78.67;41.43;;;;;;;2.41;85.60;98397.94;250239;1147;25995;-78
2021/01/03 02:40:59;;;;;;;57.33;32.67;;;;;;;2.39;85.73;98389.44;250105;1148;23107;-78
2021/01/03 02:46:02;;;;;;;68.30;37.00;;;;;;;2.42;85.78;98378.40;250147;1148;23001;-76
2021/01/03 02:51:04;;;;;;;62.20;35.55;;;;;;;2.42;86.01;98370.47;249979;1147;23352;-78
2021/01/03 02:56:06;;;;;;;67.30;36.87;;;;;;;2.46;85.90;98370.77;250191;1148;22964;-78
2021/01/03 03:01:08;;;;;;;62.73;33.17;;;;;;;2.50;85.63;98369.23;250468;1147;23008;-79
2021/01/03 03:06:10;;;;;;;65.20;37.10;;;;;;;2.50;85.45;98375.30;250103;1146;22943;-79
2021/01/03 03:11:13;;;;;;;63.87;36.50;;;;;;;2.45;85.54;98364.69;250445;1146;23015;-77
2021/01/03 03:16:18;;;;;;;58.27;31.37;;;;;;;2.39;84.92;98360.36;250697;1147;22957;-78
2021/01/03 03:21:21;;;;;;;52.37;28.10;;;;;;;2.33;85.44;98350.77;250091;1148;22980;-80
2021/01/03 03:26:23;;;;;;;64.90;33.93;;;;;;;2.32;84.74;98357.09;250220;1147;22942;-79
2021/01/03 03:31:27;;;;;;;61.27;31.67;;;;;;;2.31;85.24;98342.27;250270;1148;23111;-76
2021/01/03 03:36:29;;;;;;;56.33;30.03;;;;;;;2.28;85.03;98332.20;250013;1147;23106;-76
2021/01/03 03:41:31;;;;;;;63.63;34.87;;;;;;;2.27;85.08;98334.05;250340;1147;22939;-78
2021/01/03 03:46:34;;;;;;;74.45;40.35;;;;;;;2.30;85.45;98322.19;250282;1148;22995;-77
2021/01/03 03:51:36;;;;;;;73.65;38.90;;;;;;;2.29;85.25;98321.38;250450;1148;23687;-78
2021/01/03 03:56:38;;;;;;;71.60;37.70;;;;;;;2.27;84.89;98323.48;250262;1147;23218;-79
2021/01/03 04:01:41;;;;;;;70.10;35.00;;;;;;;2.26;85.24;98324.52;250175;1148;22967;-80
2021/01/03 04:06:43;;;;;;;66.83;33.27;;;;;;;2.28;85.15;98313.70;250235;1148;22948;-79
2021/01/03 04:11:48;;;;;;;69.00;35.40;;;;;;;2.29;85.46;98307.38;250148;1153;23333;-78
2021/01/03 04:16:57;;;;;;;50.77;28.10;;;;;;;2.26;85.31;98307.87;250057;1148;23053;-79
2021/01/03 04:22:03;;;;;;;60.43;32.33;;;;;;;2.20;84.97;98296.44;250202;1147;22914;-79
2021/01/03 04:27:08;;;;;;;69.97;38.43;;;;;;;2.18;84.72;98295.86;250140;1147;22929;-78
2021/01/03 04:32:11;;;;;;;51.97;28.20;;;;;;;2.18;85.12;98291.39;250126;1148;28376;-79
2021/01/03 04:37:18;;;;;;;48.65;26.55;;;;;;;2.19;85.20;98290.33;250159;1148;23006;-78
2021/01/03 04:42:24;;;;;;;57.50;29.23;;;;;;;2.22;84.58;98296.98;250344;1148;27202;-77
2021/01/03 04:47:35;;;;;;;61.30;33.37;;;;;;;2.28;85.07;98301.30;250310;1148;22941;-82
2021/01/03 04:52:50;;;;;;;53.43;29.50;;;;;;;2.32;84.86;98312.98;250147;1148;22939;-79
2021/01/03 04:57:59;;;;;;;54.83;30.17;;;;;;;2.34;85.14;98310.09;250212;1147;23029;-76
2021/01/03 05:03:25;;;;;;;58.77;32.07;;;;;;;2.40;84.64;98309.09;250348;1152;22936;-79
2021/01/03 05:08:33;;;;;;;50.20;29.33;;;;;;;2.49;84.96;98312.91;250528;1147;23350;-78
2021/01/03 05:13:47;;;;;;;46.10;24.50;;;;;;;2.54;85.15;98310.31;250319;1153;23099;-79
2021/01/03 05:18:49;;;;;;;62.73;29.97;;;;;;;2.53;84.55;98314.02;250481;1147;23179;-79
2021/01/03 05:24:04;;;;;;;59.20;31.77;;;;;;;2.61;84.46;98325.20;250102;1148;23419;-78
2021/01/03 05:29:08;;;;;;;52.67;28.77;;;;;;;2.63;84.21;98354.84;250223;1148;22930;-78
2021/01/03 05:34:10;;;;;;;53.55;27.95;;;;;;;2.64;83.99;98383.68;250472;1148;22926;-80
2021/01/03 05:39:21;;;;;;;67.95;34.25;;;;;;;2.69;84.31;98359.16;250160;1147;22932;-78
2021/01/03 05:44:28;;;;;;;60.83;31.73;;;;;;;2.68;84.76;98308.09;250432;1148;22960;-78
2021/01/03 05:49:31;;;;;;;58.23;31.60;;;;;;;2.73;84.27;98302.86;250437;1147;22941;-78
2021/01/03 05:54:37;;;;;;;49.40;28.83;;;;;;;2.78;84.22;98274.87;250222;1148;22870;-79
2021/01/03 05:59:40;;;;;;;47.83;25.63;;;;;;;2.77;84.23;98267.97;250571;1147;23015;-79
2021/01/03 06:04:44;;;;;;;49.00;26.33;;;;;;;2.83;84.50;98280.22;250384;1147;27720;-78
2021/01/03 06:09:46;;;;;;;55.40;30.10;;;;;;;2.91;84.05;98277.13;250083;1147;22954;-79
2021/01/03 06:15:10;;;;;;;51.60;28.95;;;;;;;2.90;84.14;98280.81;250296;1152;22982;-79
2021/01/03 06:20:20;;;;;;;58.23;29.00;;;;;;;2.86;84.36;98269.91;250199;1147;22917;-78
2021/01/03 06:25:43;;;;;;;52.27;27.50;;;;;;;2.90;84.15;98265.72;250193;1153;22934;-78
2021/01/03 06:31:08;;;;;;;49.77;28.50;;;;;;;3.00;84.08;98274.81;249982;1148;23054;-79
2021/01/03 06:36:33;;;;;;;45.35;25.85;;;;;;;3.03;84.00;98287.54;249889;1155;23022;-80
2021/01/03 06:41:52;;;;;;;40.97;23.17;;;;;;;3.01;83.90;98281.72;250553;1148;23367;-79
2021/01/03 06:47:25;;;;;;;39.77;22.27;;;;;;;3.00;83.65;98258.94;250506;1153;24488;-79
2021/01/03 06:52:50;;;;;;;54.50;29.83;;;;;;;3.06;83.63;98268.51;250409;1148;22960;-78
2021/01/03 06:57:58;;;;;;;37.73;21.83;;;;;;;3.00;83.23;98261.59;250385;1147;25900;-79
2021/01/03 07:03:18;;;;;;;52.75;26.80;;;;;;;2.91;83.03;98269.98;250442;1147;22981;-79
2021/01/03 07:08:22;;;;;;;56.73;30.17;;;;;;;2.86;83.27;98279.71;250373;1148;26392;-80
2021/01/03 07:13:27;;;;;;;48.23;26.63;;;;;;;2.83;83.25;98280.22;250578;1148;22995;-80
2021/01/03 07:18:49;;;;;;;57.33;28.87;;;;;;;2.82;83.29;98287.34;250517;1148;23000;-78
2021/01/03 07:23:55;;;;;;;51.10;26.67;;;;;;;2.83;83.46;98301.38;250228;1148;22980;-78
2021/01/03 07:29:07;;;;;;;51.23;28.37;;;;;;;2.82;83.31;98305.85;250160;1150;22938;-78
2021/01/03 07:34:17;;;;;;;53.03;27.63;;;;;;;2.82;83.38;98313.00;250396;1149;22973;-78
2021/01/03 07:39:21;;;;;;;53.07;29.33;;;;;;;2.77;82.92;98308.47;250673;1148;23028;-79
2021/01/03 07:44:26;;;;;;;49.53;28.13;;;;;;;2.79;83.57;98311.64;250619;1153;22960;-78
2021/01/03 07:49:38;;;;;;;44.80;24.90;;;;;;;2.79;83.58;98316.94;250497;1152;22942;-80
2021/01/03 07:54:51;;;;;;;43.50;24.00;;;;;;;2.79;83.23;98324.87;250537;1148;23083;-78
2021/01/03 07:59:55;;;;;;;50.50;26.87;;;;;;;2.82;83.29;98305.85;250909;1147;22942;-78
2021/01/03 08:05:00;;;;;;;52.43;28.90;;;;;;;2.85;83.46;98315.14;250892;1148;22917;-79
2021/01/03 08:10:08;;;;;;;57.73;29.90;;;;;;;2.81;83.35;98293.70;250632;1147;27209;-78
2021/01/03 08:15:32;;;;;;;57.00;30.83;;;;;;;2.78;83.72;98288.09;250586;1150;24414;-76
2021/01/03 08:20:35;;;;;;;53.60;30.70;;;;;;;2.79;84.10;98289.70;250619;1148;22963;-78
2021/01/03 08:25:37;;;;;;;46.13;27.43;;;;;;;2.83;83.96;98288.94;250225;1147;22967;-79
2021/01/03 08:30:40;;;;;;;53.30;28.33;;;;;;;2.90;84.18;98288.75;250472;1148;22967;-77
2021/01/03 08:35:43;;;;;;;59.03;31.40;;;;;;;2.90;83.89;98278.95;250329;1148;23115;-77
2021/01/03 08:40:45;;;;;;;59.73;32.87;;;;;;;2.89;84.12;98281.85;250556;1150;23193;-78
2021/01/03 08:45:50;;;;;;;49.33;26.63;;;;;;;2.90;84.44;98271.02;250521;1148;22964;-77
2021/01/03 08:51:08;;;;;;;57.40;31.60;;;;;;;3.00;84.07;98264.23;250503;1147;22937;-78
2021/01/03 08:56:17;;;;;;;63.63;31.93;;;;;;;3.19;84.43;98273.40;250127;1151;22965;-76
2021/01/03 09:01:33;;;;;;;62.43;34.30;;;;;;;3.43;84.70;98273.05;250200;1152;22933;-79
2021/01/03 09:06:35;;;;;;;56.73;31.57;;;;;;;3.60;84.22;98263.09;250514;1148;22977;-76
2021/01/03 09:12:07;;;;;;;71.53;35.77;;;;;;;3.73;84.15;98261.06;250330;1150;22960;-79
2021/01/03 09:17:23;;;;;;;69.23;37.27;;;;;;;3.83;83.51;98258.46;250140;1148;23014;-77
2021/01/03 09:22:36;;;;;;;69.07;36.57;;;;;;;3.87;83.03;98261.41;250413;1152;23015;-76
2021/01/03 09:27:40;;;;;;;78.83;41.03;;;;;;;3.85;83.38;98272.27;250511;1147;26040;-77
2021/01/03 09:32:45;;;;;;;74.67;40.13;;;;;;;3.92;82.86;98285.30;250174;1148;26603;-78
2021/01/03 09:38:17;;;;;;;72.30;41.63;;;;;;;3.98;83.41;98278.17;250478;1148;23218;-79
2021/01/03 09:43:39;;;;;;;74.60;38.53;;;;;;;3.94;82.94;98289.29;250456;1153;22944;-78
2021/01/03 09:48:42;;;;;;;78.70;41.93;;;;;;;4.00;83.00;98276.05;250190;1152;22967;-77
2021/01/03 09:53:45;;;;;;;71.20;39.55;;;;;;;4.10;83.31;98284.86;250349;1147;23399;-77
2021/01/03 09:58:51;;;;;;;94.60;48.13;;;;;;;4.27;83.36;98281.23;250348;1148;23024;-79
2021/01/03 10:03:53;;;;;;;96.73;48.97;;;;;;;4.44;83.44;98286.33;250427;1148;23028;-78
2021/01/03 10:09:15;;;;;;;111.10;52.00;;;;;;;4.58;82.77;98273.38;250333;1152;22937;-78
2021/01/03 10:14:31;;;;;;;90.93;48.03;;;;;;;4.72;82.45;98279.77;250122;1148;23392;-78
2021/01/03 10:19:34;;;;;;;93.40;50.60;;;;;;;4.80;82.39;98279.27;250383;1152;22936;-78
2021/01/03 10:24:36;;;;;;;82.73;46.70;;;;;;;4.89;82.50;98276.89;250686;1147;23414;-78
2021/01/03 10:29:40;;;;;;;82.43;43.57;;;;;;;5.01;82.29;98275.84;250141;1150;23838;-76
2021/01/03 10:34:42;;;;;;;70.97;39.30;;;;;;;5.09;81.71;98283.28;250430;1148;26398;-78
2021/01/03 10:39:47;;;;;;;65.83;37.23;;;;;;;5.09;82.01;98268.17;250465;1148;23356;-78
2021/01/03 10:44:49;;;;;;;57.70;34.45;;;;;;;5.12;81.72;98257.02;249986;1148;23052;-79
2021/01/03 10:49:51;;;;;;;90.77;45.77;;;;;;;5.13;81.54;98249.83;249972;1148;22971;-79
2021/01/03 10:54:53;;;;;;;90.05;47.15;;;;;;;5.08;81.11;98242.67;249954;1148;23053;-77
2021/01/03 10:59:55;;;;;;;80.40;41.75;;;;;;;5.03;81.22;98241.88;250196;1147;22905;-76
2021/01/03 11:04:57;;;;;;;73.20;38.10;;;;;;;5.02;81.54;98242.92;250061;1148;23020;-78
2021/01/03 11:10:00;;;;;;;51.17;28.93;;;;;;;4.92;80.93;98247.16;250128;1152;22874;-76
2021/01/03 11:15:08;;;;;;;48.67;26.90;;;;;;;4.85;80.88;98251.92;250254;1148;22955;-76
2021/01/03 11:20:27;;;;;;;48.20;26.13;;;;;;;4.81;80.91;98240.24;250474;1148;22970;-78
2021/01/03 11:25:29;;;;;;;40.57;22.90;;;;;;;4.82;80.69;98241.06;250236;1148;23412;-78
2021/01/03 11:30:30;;;;;;;42.20;22.83;;;;;;;4.82;80.63;98227.79;250291;1152;23129;-77
2021/01/03 11:35:33;;;;;;;43.83;22.90;;;;;;;4.87;80.60;98233.08;250366;1147;23370;-80
2021/01/03 11:40:35;;;;;;;39.85;24.20;;;;;;;5.02;80.11;98229.66;250169;1152;22967;-79
2021/01/03 11:45:37;;;;;;;41.27;24.23;;;;;;;5.13;80.29;98228.59;250278;1148;22990;-78
2021/01/03 11:50:39;;;;;;;71.70;38.37;;;;;;;5.24;80.65;98218.77;250380;1152;25204;-78
2021/01/03 11:55:41;;;;;;;46.57;25.90;;;;;;;5.22;79.97;98215.57;250171;1148;22948;-79
2021/01/03 12:00:43;;;;;;;54.53;29.73;;;;;;;5.13;80.58;98218.78;250144;1153;22961;-78
2021/01/03 12:05:48;;;;;;;60.85;31.30;;;;;;;5.05;80.73;98221.97;250408;1148;22963;-78
2021/01/03 12:10:51;;;;;;;62.80;35.30;;;;;;;5.11;80.63;98217.45;250141;1147;23039;-86
2021/01/03 12:15:53;;;;;;;73.73;37.53;;;;;;;5.25;81.21;98223.81;250626;1148;22973;-79
2021/01/03 12:20:55;;;;;;;71.63;39.47;;;;;;;5.42;81.08;98217.42;250172;1148;22914;-78
2021/01/03 12:25:57;;;;;;;62.73;34.43;;;;;;;5.52;81.17;98200.67;250318;1147;22907;-78
2021/01/03 12:30:59;;;;;;;63.87;34.10;;;;;;;5.65;80.89;98203.57;250513;1148;23160;-79
2021/01/03 12:36:02;;;;;;;69.10;38.93;;;;;;;5.72;81.08;98205.95;250752;1148;23026;-78
2021/01/03 12:41:05;;;;;;;71.63;36.87;;;;;;;5.83;80.91;98204.04;251462;1151;23116;-77
2021/01/03 12:46:07;;;;;;;55.43;30.60;;;;;;;5.89;80.11;98202.16;250523;1148;22974;-79
2021/01/03 12:51:09;;;;;;;60.77;33.03;;;;;;;5.92;79.76;98210.39;250445;1147;22965;-81
2021/01/03 12:56:14;;;;;;;42.63;24.53;;;;;;;5.99;79.84;98221.56;250408;1148;22908;-77
2021/01/03 13:01:16;;;;;;;44.73;25.70;;;;;;;6.20;79.92;98199.40;250122;1151;22956;-80
2021/01/03 13:06:19;;;;;;;47.40;27.00;;;;;;;6.35;79.50;98207.30;249981;1155;23042;-79
2021/01/03 13:11:21;;;;;;;43.77;25.53;;;;;;;6.35;79.24;98201.98;250370;1148;23015;-79
2021/01/03 13:16:23;;;;;;;44.87;26.07;;;;;;;6.22;78.62;98189.30;250326;1147;22967;-79
2021/01/03 13:21:26;;;;;;;53.85;31.00;;;;;;;6.09;78.69;98190.70;250465;1151;22985;-76
2021/01/03 13:26:28;;;;;;;53.10;29.07;;;;;;;5.95;78.85;98188.58;250092;1148;22959;-79
2021/01/03 13:31:31;;;;;;;51.03;29.20;;;;;;;5.89;79.12;98194.18;250240;1150;22949;-79
2021/01/03 13:36:40;;;;;;;57.67;32.87;;;;;;;5.79;79.25;98187.85;250666;1152;22945;-76
2021/01/03 13:41:43;;;;;;;53.40;31.60;;;;;;;5.75;79.48;98185.98;250203;1150;22936;-79
2021/01/03 13:46:51;;;;;;;51.30;29.20;;;;;;;5.74;79.76;98193.17;250139;1153;22939;-78
2021/01/03 13:51:53;;;;;;;59.20;32.23;;;;;;;5.72;80.16;98191.84;250399;1147;26394;-78
2021/01/03 13:56:56;;;;;;;55.37;32.03;;;;;;;5.60;79.62;98184.97;250111;1150;23018;-77
2021/01/03 14:01:58;;;;;;;48.57;28.17;;;;;;;5.44;79.07;98189.53;250029;1147;22953;-79
2021/01/03 14:07:01;;;;;;;50.50;28.55;;;;;;;5.35;79.66;98193.79;250643;1149;22967;-79
2021/01/03 14:12:04;;;;;;;56.27;32.40;;;;;;;5.24;79.75;98192.22;250820;1147;23039;-79
2021/01/03 14:17:10;;;;;;;62.43;34.17;;;;;;;5.12;80.22;98197.78;250258;1148;22936;-77
2021/01/03 14:22:12;;;;;;;60.13;33.70;;;;;;;5.03;79.79;98202.84;250420;1150;23085;-77
2021/01/03 14:27:14;;;;;;;67.10;36.87;;;;;;;5.01;80.46;98201.51;250618;1147;22949;-79
2021/01/03 14:32:17;;;;;;;63.23;35.73;;;;;;;5.00;80.15;98197.28;250526;1148;23039;-79
2021/01/03 14:37:34;;;;;;;72.50;37.17;;;;;;;4.92;80.11;98209.99;250151;1147;22939;-78
2021/01/03 14:42:38;;;;;;;80.63;40.33;;;;;;;4.83;80.05;98208.95;250153;1148;22988;-78
2021/01/03 14:48:21;;;;;;;69.50;36.43;;;;;;;4.78;80.42;98200.97;250152;1152;22938;-79
2021/01/03 14:53:37;;;;;;;63.37;33.57;;;;;;;4.73;80.55;98206.27;250227;1148;22981;-79
2021/01/03 14:59:09;;;;;;;60.27;32.40;;;;;;;4.68;80.50;98215.02;250266;1148;23045;-77
2021/01/03 15:04:29;;;;;;;62.53;32.43;;;;;;;4.65;80.56;98214.77;250529;1146;22894;-82
2021/01/03 15:09:34;;;;;;;52.15;29.07;;;;;;;4.63;80.05;98217.66;250458;1147;22946;-79
2021/01/03 15:14:40;;;;;;;49.30;26.50;;;;;;;4.62;80.29;98206.26;250355;1147;26027;-78
2021/01/03 15:20:09;;;;;;;77.27;38.13;;;;;;;4.63;80.25;98215.00;250793;1148;22887;-79
2021/01/03 15:25:21;;;;;;;81.67;39.67;;;;;;;4.61;79.83;98211.83;250346;1152;22957;-78
2021/01/03 15:30:31;;;;;;;79.13;39.10;;;;;;;4.57;79.95;98211.55;250333;1147;24574;-82
2021/01/03 15:35:41;;;;;;;79.67;38.40;;;;;;;4.49;79.92;98225.34;250303;1147;26498;-78
2021/01/03 15:40:52;;;;;;;;;;;;;;;4.33;79.67;98221.05;250416;1147;27761;-76
2021/01/03 15:46:09;;;;;;;62.93;34.03;;;;;;;4.13;79.75;98235.83;250331;1152;21579;-80
2021/01/03 15:51:18;;;;;;;72.63;36.67;;;;;;;4.02;79.66;98234.98;250412;1147;22941;-78
2021/01/03 15:56:23;;;;;;;68.50;35.53;;;;;;;3.92;80.03;98216.39;250043;1151;22975;-78
2021/01/03 16:01:31;;;;;;;66.43;35.93;;;;;;;3.95;80.16;98234.42;250210;1148;23087;-81
2021/01/03 16:06:37;;;;;;;59.03;31.23;;;;;;;3.93;80.38;98225.92;250176;1148;23091;-81
2021/01/03 16:11:39;;;;;;;51.17;27.33;;;;;;;3.93;80.60;98233.87;250373;1148;27424;-79
2021/01/03 16:16:45;;;;;;;61.65;31.15;;;;;;;3.91;80.21;98233.34;250106;1148;22959;-78
2021/01/03 16:22:15;;;;;;;62.20;32.17;;;;;;;3.96;80.25;98227.27;250098;1147;22981;-79
2021/01/03 16:27:24;;;;;;;61.90;31.07;;;;;;;4.03;79.98;98225.17;250465;1148;23001;-80
2021/01/03 16:32:42;;;;;;;52.03;27.27;;;;;;;4.06;80.13;98228.11;250253;1148;23360;-79
2021/01/03 16:37:47;;;;;;;66.50;34.90;;;;;;;4.08;80.24;98225.20;250644;1152;22994;-79
2021/01/03 16:43:16;;;;;;;64.90;33.90;;;;;;;4.12;79.89;98236.88;250402;1148;22967;-78
2021/01/03 16:48:43;;;;;;;72.97;35.60;;;;;;;4.16;80.43;98231.87;250251;1147;25893;-78
2021/01/03 16:54:03;;;;;;;75.30;38.37;;;;;;;4.15;79.96;98246.17;250264;1147;23058;-78
2021/01/03 16:59:33;;;;;;;71.40;35.77;;;;;;;4.16;80.24;98248.56;250458;1148;23399;-80
2021/01/03 17:04:37;;;;;;;103.67;48.20;;;;;;;4.13;80.09;98248.27;250272;1148;22964;-81
2021/01/03 17:09:57;;;;;;;97.17;44.70;;;;;;;4.13;80.08;98249.09;250152;1154;22966;-79
2021/01/03 17:15:11;;;;;;;97.07;48.57;;;;;;;4.13;79.98;98257.04;250208;1148;23006;-79
2021/01/03 17:20:30;;;;;;;87.30;44.90;;;;;;;4.15;80.47;98262.87;250179;1153;24573;-78
2021/01/03 17:26:05;;;;;;;93.80;46.88;;;;;;;4.17;79.99;98260.77;250297;1148;23041;-79
2021/01/03 17:31:22;;;;;;;88.97;42.27;;;;;;;4.20;79.93;98259.46;250296;1148;24596;-76
2021/01/03 17:36:55;;;;;;;96.07;47.10;;;;;;;4.25;80.43;98264.77;250037;1152;22959;-82
2021/01/03 17:42:02;;;;;;;75.67;38.90;;;;;;;4.22;80.17;98263.42;250366;1148;22970;-76
2021/01/03 17:47:19;;;;;;;83.90;42.85;;;;;;;4.19;80.24;98265.81;250500;1147;22964;-79
2021/01/03 17:52:28;;;;;;;97.30;48.45;;;;;;;4.16;80.11;98264.47;250135;1148;22998;-81
2021/01/03 17:57:35;;;;;;;95.47;46.77;;;;;;;4.19;80.37;98261.30;250299;1148;26466;-78
2021/01/03 18:02:37;;;;;;;86.67;41.33;;;;;;;4.16;80.76;98267.12;250278;1148;23004;-80
2021/01/03 18:07:40;;;;;;;128.93;62.20;;;;;;;4.12;80.08;98268.69;250019;1151;25700;-78
2021/01/03 18:12:42;;;;;;;144.70;71.77;;;;;;;4.07;80.29;98271.30;249860;1148;22955;-80
2021/01/03 18:17:48;;;;;;;151.05;72.75;;;;;;;4.05;80.32;98278.73;250224;1147;22967;-78
2021/01/03 18:22:50;;;;;;;129.80;65.40;;;;;;;4.01;80.83;98281.09;250110;1147;23110;-78
2021/01/03 18:27:54;;;;;;;114.70;58.17;;;;;;;3.97;80.66;98280.00;250123;1148;26063;-76
2021/01/03 18:32:59;;;;;;;106.17;48.17;;;;;;;3.95;80.67;98287.43;250083;1148;22910;-79
2021/01/03 18:38:03;;;;;;;77.70;38.37;;;;;;;3.90;80.56;98287.39;250231;1147;22945;-79
2021/01/03 18:43:05;;;;;;;97.57;48.07;;;;;;;3.88;80.98;98294.81;250560;1148;22957;-79
2021/01/03 18:48:08;;;;;;;95.90;48.63;;;;;;;3.92;80.94;98309.94;250370;1151;23055;-79
2021/01/03 18:53:11;;;;;;;75.93;39.77;;;;;;;3.93;81.00;98292.98;250496;1148;22953;-79
2021/01/03 18:58:14;;;;;;;75.13;41.10;;;;;;;3.87;81.21;98309.11;250221;1150;22942;-79
2021/01/03 19:03:16;;;;;;;91.07;44.97;;;;;;;3.84;80.88;98323.66;250527;1152;23112;-78
2021/01/03 19:08:19;;;;;;;92.10;48.47;;;;;;;3.83;80.77;98322.05;250287;1148;22969;-79
2021/01/03 19:13:21;;;;;;;90.17;46.57;;;;;;;3.86;81.49;98318.92;250274;1147;22967;-78
2021/01/03 19:18:23;;;;;;;82.00;43.53;;;;;;;3.85;81.35;98319.17;250116;1148;22995;-79
2021/01/03 19:23:26;;;;;;;84.00;44.57;;;;;;;3.84;81.28;98326.31;250276;1148;22970;-78
2021/01/03 19:28:28;;;;;;;85.47;42.27;;;;;;;3.81;80.91;98334.77;250170;1148;22948;-78
2021/01/03 19:33:32;;;;;;;95.70;46.70;;;;;;;3.79;81.31;98333.42;250487;1152;22949;-79
2021/01/03 19:38:34;;;;;;;97.57;50.90;;;;;;;3.79;81.38;98334.21;250450;1148;22967;-78
2021/01/03 19:43:37;;;;;;;81.90;44.55;;;;;;;3.78;81.61;98340.59;250325;1152;23109;-79
2021/01/03 19:48:39;;;;;;;95.83;48.63;;;;;;;3.68;81.41;98354.55;251076;1147;22964;-78
2021/01/03 19:53:42;;;;;;;103.60;53.50;;;;;;;3.64;81.34;98347.34;250101;1148;23406;-80
2021/01/03 19:58:44;;;;;;;129.83;61.80;;;;;;;3.69;82.28;98357.99;250629;1148;23183;-84
2021/01/03 20:03:48;;;;;;;139.37;69.67;;;;;;;3.71;81.92;98366.50;250431;1152;23032;-80
2021/01/03 20:08:51;;;;;;;149.33;72.60;;;;;;;3.69;81.89;98371.23;250342;1148;22968;-79
2021/01/03 20:13:54;;;;;;;184.10;86.97;;;;;;;3.64;81.59;98368.54;250274;1148;26140;-79
2021/01/03 20:18:59;;;;;;;216.00;94.57;;;;;;;3.63;81.95;98367.75;250296;1148;24600;-79
2021/01/03 20:24:04;;;;;;;247.20;112.40;;;;;;;3.57;82.23;98369.56;250489;1153;22994;-79
2021/01/03 20:29:07;;;;;;;280.17;127.17;;;;;;;3.58;82.30;98375.64;250511;1148;22939;-78
2021/01/03 20:34:09;;;;;;;289.33;127.40;;;;;;;3.62;82.97;98373.30;250213;1153;23050;-77
2021/01/03 20:39:12;;;;;;;300.17;131.77;;;;;;;3.61;82.51;98377.81;250393;1148;22974;-79
2021/01/03 20:44:15;;;;;;;264.77;121.73;;;;;;;3.62;82.45;98384.69;250311;1152;25750;-78
2021/01/03 20:49:17;;;;;;;244.70;115.85;;;;;;;3.61;82.31;98383.11;250339;1148;22994;-80
2021/01/03 20:54:20;;;;;;;226.23;104.23;;;;;;;3.65;82.89;98396.63;250050;1148;22922;-79
2021/01/03 20:59:23;;;;;;;219.17;105.27;;;;;;;3.57;82.71;98396.05;250549;1148;23040;-79
2021/01/03 21:04:28;;;;;;;237.20;107.10;;;;;;;3.49;82.32;98393.06;250750;1153;22939;-80
2021/01/03 21:09:36;;;;;;;223.53;104.47;;;;;;;3.41;82.60;98396.95;250141;1148;27263;-78
2021/01/03 21:14:40;;;;;;;225.80;105.50;;;;;;;3.39;82.62;98399.06;250694;1152;23073;-78
2021/01/03 21:19:43;;;;;;;226.35;106.70;;;;;;;3.37;82.87;98409.09;250364;1147;23001;-77
2021/01/03 21:24:46;;;;;;;236.00;105.53;;;;;;;3.34;82.97;98402.44;250303;1152;22977;-78
2021/01/03 21:30:34;;;;;;;230.20;105.73;;;;;;;3.33;82.74;98402.69;250126;1147;23086;-78
2021/01/03 21:35:41;;;;;;;241.20;104.50;;;;;;;3.32;82.80;98403.77;250509;1152;22980;-79
2021/01/03 21:40:55;;;;;;;210.07;98.33;;;;;;;3.27;82.97;98401.84;250441;1148;22932;-79
2021/01/03 21:45:58;;;;;;;239.90;107.15;;;;;;;3.16;82.83;98410.73;250461;1148;22947;-77
2021/01/03 21:51:06;;;;;;;232.13;108.30;;;;;;;3.13;83.21;98400.64;250357;1147;23151;-77
2021/01/03 21:56:32;;;;;;;226.47;103.97;;;;;;;3.10;83.39;98401.94;250046;1147;22942;-76
2021/01/03 22:02:09;;;;;;;216.83;101.87;;;;;;;3.08;83.29;98407.48;250177;1148;22959;-78
2021/01/03 22:07:33;;;;;;;236.23;107.27;;;;;;;3.11;83.41;98418.64;250039;1152;22975;-78
2021/01/03 22:12:49;;;;;;;244.03;109.13;;;;;;;3.14;83.19;98432.16;249937;1151;23005;-76
2021/01/03 22:17:58;;;;;;;250.07;111.20;;;;;;;3.20;83.73;98425.86;250214;1148;23006;-79
2021/01/03 22:23:28;;;;;;;211.85;99.75;;;;;;;3.25;83.58;98425.13;250292;1147;22946;-77
2021/01/03 22:28:30;;;;;;;252.97;113.67;;;;;;;3.27;83.84;98416.94;250298;1147;22905;-79
2021/01/03 22:33:37;;;;;;;233.17;103.00;;;;;;;3.28;83.11;98429.14;250187;1148;22953;-82
2021/01/03 22:38:43;;;;;;;249.73;107.43;;;;;;;3.31;83.08;98434.72;250317;1147;22946;-86
2021/01/03 22:44:13;;;;;;;270.57;117.83;;;;;;;3.31;82.91;98424.13;250439;1148;22971;-77
2021/01/03 22:49:58;;;;;;;231.93;101.03;;;;;;;3.33;83.45;98418.58;250322;1147;27217;-78
2021/01/03 22:55:32;;;;;;;157.93;70.90;;;;;;;3.33;83.39;98407.98;250661;1148;23000;-77
2021/01/03 23:00:51;;;;;;;180.10;79.17;;;;;;;3.28;82.68;98413.25;250043;1148;23039;-78
2021/01/03 23:06:18;;;;;;;154.85;66.02;;;;;;;3.18;82.81;98406.00;250816;1147;22983;-78
2021/01/03 23:11:32;;;;;;;142.43;64.57;;;;;;;2.94;82.45;98410.74;250411;1148;22998;-76
2021/01/03 23:16:34;;;;;;;109.37;50.23;;;;;;;2.79;82.56;98406.88;250519;1147;22995;-77
2021/01/03 23:21:37;;;;;;;122.90;59.27;;;;;;;2.73;82.94;98397.30;250232;1148;22984;-78
2021/01/03 23:26:45;;;;;;;125.00;55.57;;;;;;;2.65;82.96;98403.80;250171;1148;22953;-79
2021/01/03 23:31:54;;;;;;;142.93;65.17;;;;;;;2.53;83.26;98403.92;250354;1148;23112;-79